サンティアゴ の空港の天気 - METARとTAF

アルトゥーロ・メリノ・ベニテス国際空港(サンティアゴ) ( SCEL / SCL ) - チリ サンティアゴ
飛行場実況気象(Metar)
観測時間08/14 01:00 CLT (08/14 05:00 UTC)
風向・風速南東 3m/s
視程10km以上
天気現象
少しの雲 雲底高度 2350m
気温6℃
湿度87%
気圧1017hPa
METARSCEL 140500Z AUTO 14006KT 9999 FEW077/// 06/04 Q1017
過去の天気等 Google飛行場航空写真 Wunderground天気予報

過去48時間のMETAR

飛行場予報(TAF)
発表時間: 8/13 19:56 CLT (8/13 23:56 UTC)
予報対象時間: 13日20時 CLT ~ 14日20時 CLT
風向・風速南南東 2m/s
視程8000m
全天の4割程度の雲 雲底高度 5490m
全天の4割程度の雲 雲底高度 6710m
14日2時 CLT ~ 14日4時 CLT に徐々に
視程6000m
少しの雲 雲底高度 240m
14日4時 CLT ~ 14日10時 CLT に一時的に
風向・風速不定 1m/s
視程2000m
天気現象もや
全天の4割程度の雲 雲底高度 60m
全天の8割程度の雲 雲底高度 240m
14日11時 CLT ~ 14日13時 CLT に徐々に
風向・風速南南東 4m/s
視程8000m
全天の4割程度の雲 雲底高度 460m
14日13時 CLT ~ 14日14時 CLT に徐々に
視程10km以上
なし
TAF COR SCEL 132356Z 1400/1424 16004KT 8000 SCT180 SCT220 TX14/1418Z TN01/1410Z
BECMG 1406/1408 6000 FEW008
TEMPO 1408/1414 VRB02KT 2000 BR SCT002 BKN008
BECMG 1415/1417 15008KT 8000 SCT015
BECMG 1417/1418 CAVOK